sensor_id;sensor_type;location;lat;lon;timestamp;P1;durP1;ratioP1;P2;durP2;ratioP2
66118;SDS011;52912;48.564;9.302;2022-07-11T00:01:56;2.30;;;1.33;;
66118;SDS011;52912;48.564;9.302;2022-07-11T00:04:22;3.58;;;1.63;;
66118;SDS011;52912;48.564;9.302;2022-07-11T00:06:47;5.90;;;1.70;;
66118;SDS011;52912;48.564;9.302;2022-07-11T00:09:14;4.80;;;1.60;;
66118;SDS011;52912;48.564;9.302;2022-07-11T00:11:40;3.25;;;1.50;;
66118;SDS011;52912;48.564;9.302;2022-07-11T00:14:09;3.30;;;1.60;;
66118;SDS011;52912;48.564;9.302;2022-07-11T00:16:34;5.75;;;1.70;;
66118;SDS011;52912;48.564;9.302;2022-07-11T00:19:00;3.03;;;1.55;;
66118;SDS011;52912;48.564;9.302;2022-07-11T00:21:26;2.92;;;1.40;;
66118;SDS011;52912;48.564;9.302;2022-07-11T00:23:51;3.17;;;1.67;;
66118;SDS011;52912;48.564;9.302;2022-07-11T00:26:18;3.78;;;1.60;;
66118;SDS011;52912;48.564;9.302;2022-07-11T00:28:48;5.60;;;1.58;;
66118;SDS011;52912;48.564;9.302;2022-07-11T00:31:13;3.72;;;1.65;;
66118;SDS011;52912;48.564;9.302;2022-07-11T00:33:39;2.80;;;1.50;;
66118;SDS011;52912;48.564;9.302;2022-07-11T00:36:05;2.33;;;1.40;;
66118;SDS011;52912;48.564;9.302;2022-07-11T00:38:31;1.40;;;1.30;;
66118;SDS011;52912;48.564;9.302;2022-07-11T00:40:56;4.88;;;1.55;;
66118;SDS011;52912;48.564;9.302;2022-07-11T00:43:30;5.57;;;2.20;;
66118;SDS011;52912;48.564;9.302;2022-07-11T00:45:56;4.85;;;1.60;;
66118;SDS011;52912;48.564;9.302;2022-07-11T00:48:21;3.83;;;1.65;;
66118;SDS011;52912;48.564;9.302;2022-07-11T00:50:47;2.92;;;1.40;;
66118;SDS011;52912;48.564;9.302;2022-07-11T00:53:13;3.78;;;1.50;;
66118;SDS011;52912;48.564;9.302;2022-07-11T00:55:40;3.72;;;1.58;;
66118;SDS011;52912;48.564;9.302;2022-07-11T00:58:06;5.57;;;1.80;;
66118;SDS011;52912;48.564;9.302;2022-07-11T01:00:33;2.28;;;1.52;;
66118;SDS011;52912;48.564;9.302;2022-07-11T01:02:58;3.70;;;1.65;;
66118;SDS011;52912;48.564;9.302;2022-07-11T01:05:24;2.85;;;1.50;;
66118;SDS011;52912;48.564;9.302;2022-07-11T01:07:50;3.58;;;1.63;;
66118;SDS011;52912;48.564;9.302;2022-07-11T01:10:15;7.40;;;1.75;;
66118;SDS011;52912;48.564;9.302;2022-07-11T01:12:41;6.10;;;1.63;;
66118;SDS011;52912;48.564;9.302;2022-07-11T01:15:07;2.88;;;1.60;;
66118;SDS011;52912;48.564;9.302;2022-07-11T01:17:34;2.90;;;1.60;;
66118;SDS011;52912;48.564;9.302;2022-07-11T01:20:04;4.63;;;1.50;;
66118;SDS011;52912;48.564;9.302;2022-07-11T01:22:30;4.85;;;2.03;;
66118;SDS011;52912;48.564;9.302;2022-07-11T01:25:02;3.60;;;1.50;;
66118;SDS011;52912;48.564;9.302;2022-07-11T01:27:28;2.20;;;1.30;;
66118;SDS011;52912;48.564;9.302;2022-07-11T01:29:54;2.03;;;1.35;;
66118;SDS011;52912;48.564;9.302;2022-07-11T01:32:20;2.35;;;1.30;;
66118;SDS011;52912;48.564;9.302;2022-07-11T01:34:45;4.53;;;1.50;;
66118;SDS011;52912;48.564;9.302;2022-07-11T01:37:11;4.15;;;2.00;;
66118;SDS011;52912;48.564;9.302;2022-07-11T01:39:37;3.80;;;1.65;;
66118;SDS011;52912;48.564;9.302;2022-07-11T01:42:04;3.72;;;1.70;;
66118;SDS011;52912;48.564;9.302;2022-07-11T01:44:30;3.25;;;1.70;;
66118;SDS011;52912;48.564;9.302;2022-07-11T01:46:55;4.13;;;1.60;;
66118;SDS011;52912;48.564;9.302;2022-07-11T01:49:21;2.28;;;1.40;;
66118;SDS011;52912;48.564;9.302;2022-07-11T01:51:47;4.65;;;1.55;;
66118;SDS011;52912;48.564;9.302;2022-07-11T01:54:13;1.85;;;1.10;;
66118;SDS011;52912;48.564;9.302;2022-07-11T01:56:39;2.15;;;1.38;;
66118;SDS011;52912;48.564;9.302;2022-07-11T01:59:06;11.27;;;2.00;;
66118;SDS011;52912;48.564;9.302;2022-07-11T02:01:31;3.42;;;1.45;;
66118;SDS011;52912;48.564;9.302;2022-07-11T02:03:57;2.10;;;1.30;;
66118;SDS011;52912;48.564;9.302;2022-07-11T02:06:23;5.10;;;1.60;;
66118;SDS011;52912;48.564;9.302;2022-07-11T02:08:49;2.60;;;1.50;;
66118;SDS011;52912;48.564;9.302;2022-07-11T02:11:14;3.85;;;1.50;;
66118;SDS011;52912;48.564;9.302;2022-07-11T02:13:40;4.47;;;1.52;;
66118;SDS011;52912;48.564;9.302;2022-07-11T02:16:07;3.22;;;1.50;;
66118;SDS011;52912;48.564;9.302;2022-07-11T02:18:33;3.80;;;1.40;;
66118;SDS011;52912;48.564;9.302;2022-07-11T02:20:58;2.95;;;1.60;;
66118;SDS011;52912;48.564;9.302;2022-07-11T02:23:24;2.60;;;1.38;;
66118;SDS011;52912;48.564;9.302;2022-07-11T02:25:50;5.35;;;1.40;;
66118;SDS011;52912;48.564;9.302;2022-07-11T02:28:15;3.55;;;1.48;;
66118;SDS011;52912;48.564;9.302;2022-07-11T02:30:42;6.47;;;1.40;;
66118;SDS011;52912;48.564;9.302;2022-07-11T02:33:09;4.03;;;1.50;;
66118;SDS011;52912;48.564;9.302;2022-07-11T02:35:35;3.58;;;1.45;;
66118;SDS011;52912;48.564;9.302;2022-07-11T02:38:00;3.00;;;1.45;;
66118;SDS011;52912;48.564;9.302;2022-07-11T02:40:26;4.32;;;1.77;;
66118;SDS011;52912;48.564;9.302;2022-07-11T02:42:52;2.80;;;1.27;;
66118;SDS011;52912;48.564;9.302;2022-07-11T02:45:17;3.75;;;1.52;;
66118;SDS011;52912;48.564;9.302;2022-07-11T02:47:43;3.30;;;1.50;;
66118;SDS011;52912;48.564;9.302;2022-07-11T02:50:11;3.67;;;1.42;;
66118;SDS011;52912;48.564;9.302;2022-07-11T02:52:37;6.40;;;1.85;;
66118;SDS011;52912;48.564;9.302;2022-07-11T02:55:04;2.33;;;1.27;;
66118;SDS011;52912;48.564;9.302;2022-07-11T02:57:31;3.05;;;1.40;;
66118;SDS011;52912;48.564;9.302;2022-07-11T02:59:56;3.33;;;1.60;;
66118;SDS011;52912;48.564;9.302;2022-07-11T03:02:22;5.18;;;1.60;;
66118;SDS011;52912;48.564;9.302;2022-07-11T03:04:47;3.45;;;1.65;;
66118;SDS011;52912;48.564;9.302;2022-07-11T03:07:14;2.22;;;1.40;;
66118;SDS011;52912;48.564;9.302;2022-07-11T03:09:40;5.15;;;1.40;;
66118;SDS011;52912;48.564;9.302;2022-07-11T03:12:06;6.90;;;1.60;;
66118;SDS011;52912;48.564;9.302;2022-07-11T03:14:32;3.97;;;1.63;;
66118;SDS011;52912;48.564;9.302;2022-07-11T03:16:57;2.85;;;1.45;;
66118;SDS011;52912;48.564;9.302;2022-07-11T03:19:23;3.60;;;1.50;;
66118;SDS011;52912;48.564;9.302;2022-07-11T03:21:48;2.70;;;1.52;;
66118;SDS011;52912;48.564;9.302;2022-07-11T03:24:15;3.70;;;1.60;;
66118;SDS011;52912;48.564;9.302;2022-07-11T03:26:41;3.05;;;1.58;;
66118;SDS011;52912;48.564;9.302;2022-07-11T03:29:06;2.95;;;1.50;;
66118;SDS011;52912;48.564;9.302;2022-07-11T03:31:32;3.35;;;1.73;;
66118;SDS011;52912;48.564;9.302;2022-07-11T03:33:57;4.35;;;1.70;;
66118;SDS011;52912;48.564;9.302;2022-07-11T03:36:23;2.22;;;1.25;;
66118;SDS011;52912;48.564;9.302;2022-07-11T03:38:48;3.22;;;1.48;;
66118;SDS011;52912;48.564;9.302;2022-07-11T03:41:15;5.57;;;1.88;;
66118;SDS011;52912;48.564;9.302;2022-07-11T03:43:41;3.85;;;2.00;;
66118;SDS011;52912;48.564;9.302;2022-07-11T03:46:06;4.57;;;1.70;;
66118;SDS011;52912;48.564;9.302;2022-07-11T03:48:32;4.88;;;1.60;;
66118;SDS011;52912;48.564;9.302;2022-07-11T03:50:57;4.20;;;1.52;;
66118;SDS011;52912;48.564;9.302;2022-07-11T03:53:23;4.07;;;1.70;;
66118;SDS011;52912;48.564;9.302;2022-07-11T03:55:48;4.75;;;2.10;;
66118;SDS011;52912;48.564;9.302;2022-07-11T03:58:15;2.25;;;1.40;;
66118;SDS011;52912;48.564;9.302;2022-07-11T04:00:41;4.90;;;1.52;;
66118;SDS011;52912;48.564;9.302;2022-07-11T04:03:07;3.97;;;1.63;;
66118;SDS011;52912;48.564;9.302;2022-07-11T04:05:34;4.03;;;1.50;;
66118;SDS011;52912;48.564;9.302;2022-07-11T04:07:59;1.52;;;1.30;;
66118;SDS011;52912;48.564;9.302;2022-07-11T04:12:54;5.23;;;1.50;;
66118;SDS011;52912;48.564;9.302;2022-07-11T04:15:21;2.60;;;1.50;;
66118;SDS011;52912;48.564;9.302;2022-07-11T04:17:46;4.18;;;1.52;;
66118;SDS011;52912;48.564;9.302;2022-07-11T04:20:12;3.55;;;1.50;;
66118;SDS011;52912;48.564;9.302;2022-07-11T04:22:37;2.47;;;1.60;;
66118;SDS011;52912;48.564;9.302;2022-07-11T04:25:03;1.67;;;1.40;;
66118;SDS011;52912;48.564;9.302;2022-07-11T04:27:29;4.90;;;1.73;;
66118;SDS011;52912;48.564;9.302;2022-07-11T04:29:55;3.95;;;1.63;;
66118;SDS011;52912;48.564;9.302;2022-07-11T04:32:22;3.65;;;1.70;;
66118;SDS011;52912;48.564;9.302;2022-07-11T04:34:47;4.03;;;1.80;;
66118;SDS011;52912;48.564;9.302;2022-07-11T04:37:13;4.65;;;1.92;;
66118;SDS011;52912;48.564;9.302;2022-07-11T04:39:39;5.03;;;1.70;;
66118;SDS011;52912;48.564;9.302;2022-07-11T04:42:05;4.10;;;1.50;;
66118;SDS011;52912;48.564;9.302;2022-07-11T04:44:30;3.55;;;1.70;;
66118;SDS011;52912;48.564;9.302;2022-07-11T04:46:57;7.55;;;1.60;;
66118;SDS011;52912;48.564;9.302;2022-07-11T04:49:25;3.95;;;1.90;;
66118;SDS011;52912;48.564;9.302;2022-07-11T04:51:50;6.68;;;2.40;;
66118;SDS011;52912;48.564;9.302;2022-07-11T04:54:16;4.40;;;2.00;;
66118;SDS011;52912;48.564;9.302;2022-07-11T04:56:41;6.30;;;2.00;;
66118;SDS011;52912;48.564;9.302;2022-07-11T04:59:07;7.13;;;2.00;;
66118;SDS011;52912;48.564;9.302;2022-07-11T05:01:32;3.78;;;1.90;;
66118;SDS011;52912;48.564;9.302;2022-07-11T05:03:58;3.92;;;1.80;;
66118;SDS011;52912;48.564;9.302;2022-07-11T05:06:25;3.67;;;1.90;;
66118;SDS011;52912;48.564;9.302;2022-07-11T05:08:51;3.63;;;1.75;;
66118;SDS011;52912;48.564;9.302;2022-07-11T05:11:16;4.65;;;1.77;;
66118;SDS011;52912;48.564;9.302;2022-07-11T05:13:42;4.45;;;2.00;;
66118;SDS011;52912;48.564;9.302;2022-07-11T05:16:08;2.80;;;1.67;;
66118;SDS011;52912;48.564;9.302;2022-07-11T05:18:34;6.45;;;1.90;;
66118;SDS011;52912;48.564;9.302;2022-07-11T05:21:01;3.90;;;2.00;;
66118;SDS011;52912;48.564;9.302;2022-07-11T05:23:28;4.82;;;1.98;;
66118;SDS011;52912;48.564;9.302;2022-07-11T05:25:54;5.28;;;1.83;;
66118;SDS011;52912;48.564;9.302;2022-07-11T05:28:19;3.97;;;1.90;;
66118;SDS011;52912;48.564;9.302;2022-07-11T05:30:45;4.28;;;1.83;;
66118;SDS011;52912;48.564;9.302;2022-07-11T05:33:10;6.28;;;1.70;;
66118;SDS011;52912;48.564;9.302;2022-07-11T05:35:36;3.78;;;1.70;;
66118;SDS011;52912;48.564;9.302;2022-07-11T05:38:02;6.85;;;1.65;;
66118;SDS011;52912;48.564;9.302;2022-07-11T05:40:29;6.35;;;1.85;;
66118;SDS011;52912;48.564;9.302;2022-07-11T05:42:54;3.22;;;1.80;;
66118;SDS011;52912;48.564;9.302;2022-07-11T05:45:20;3.90;;;1.90;;
66118;SDS011;52912;48.564;9.302;2022-07-11T05:47:45;3.17;;;1.75;;
66118;SDS011;52912;48.564;9.302;2022-07-11T05:50:11;4.55;;;1.80;;
66118;SDS011;52912;48.564;9.302;2022-07-11T05:52:36;4.20;;;2.15;;
66118;SDS011;52912;48.564;9.302;2022-07-11T05:55:02;6.10;;;1.95;;
66118;SDS011;52912;48.564;9.302;2022-07-11T05:57:29;3.92;;;1.70;;
66118;SDS011;52912;48.564;9.302;2022-07-11T05:59:55;5.47;;;2.03;;
66118;SDS011;52912;48.564;9.302;2022-07-11T06:02:21;3.28;;;1.65;;
66118;SDS011;52912;48.564;9.302;2022-07-11T06:04:46;5.20;;;1.80;;
66118;SDS011;52912;48.564;9.302;2022-07-11T06:07:12;3.47;;;1.70;;
66118;SDS011;52912;48.564;9.302;2022-07-11T06:09:37;5.07;;;1.67;;
66118;SDS011;52912;48.564;9.302;2022-07-11T06:12:03;4.50;;;2.00;;
66118;SDS011;52912;48.564;9.302;2022-07-11T06:14:30;4.70;;;2.00;;
66118;SDS011;52912;48.564;9.302;2022-07-11T06:16:59;2.63;;;1.65;;
66118;SDS011;52912;48.564;9.302;2022-07-11T06:19:24;4.65;;;1.75;;
66118;SDS011;52912;48.564;9.302;2022-07-11T06:21:50;6.22;;;1.83;;
66118;SDS011;52912;48.564;9.302;2022-07-11T06:24:15;9.60;;;2.15;;
66118;SDS011;52912;48.564;9.302;2022-07-11T06:26:41;2.63;;;1.80;;
66118;SDS011;52912;48.564;9.302;2022-07-11T06:29:07;8.32;;;2.20;;
66118;SDS011;52912;48.564;9.302;2022-07-11T06:31:34;5.95;;;1.95;;
66118;SDS011;52912;48.564;9.302;2022-07-11T06:33:59;3.38;;;1.92;;
66118;SDS011;52912;48.564;9.302;2022-07-11T06:36:25;8.85;;;2.17;;
66118;SDS011;52912;48.564;9.302;2022-07-11T06:38:51;2.42;;;1.67;;
66118;SDS011;52912;48.564;9.302;2022-07-11T06:41:17;2.58;;;1.60;;
66118;SDS011;52912;48.564;9.302;2022-07-11T06:43:43;4.40;;;1.85;;
66118;SDS011;52912;48.564;9.302;2022-07-11T06:46:08;4.28;;;2.00;;
66118;SDS011;52912;48.564;9.302;2022-07-11T06:48:35;6.65;;;2.00;;
66118;SDS011;52912;48.564;9.302;2022-07-11T06:51:01;5.97;;;2.33;;
66118;SDS011;52912;48.564;9.302;2022-07-11T06:53:26;3.72;;;1.95;;
66118;SDS011;52912;48.564;9.302;2022-07-11T06:55:52;10.30;;;2.38;;
66118;SDS011;52912;48.564;9.302;2022-07-11T06:58:18;6.22;;;2.22;;
66118;SDS011;52912;48.564;9.302;2022-07-11T07:00:43;5.00;;;2.33;;
66118;SDS011;52912;48.564;9.302;2022-07-11T07:03:09;5.70;;;2.05;;
66118;SDS011;52912;48.564;9.302;2022-07-11T07:05:36;4.53;;;1.92;;
66118;SDS011;52912;48.564;9.302;2022-07-11T07:08:01;4.53;;;2.20;;
66118;SDS011;52912;48.564;9.302;2022-07-11T07:10:27;7.07;;;2.13;;
66118;SDS011;52912;48.564;9.302;2022-07-11T07:12:53;4.55;;;2.35;;
66118;SDS011;52912;48.564;9.302;2022-07-11T07:15:19;5.53;;;2.03;;
66118;SDS011;52912;48.564;9.302;2022-07-11T07:17:44;5.38;;;2.10;;
66118;SDS011;52912;48.564;9.302;2022-07-11T07:20:10;5.60;;;2.28;;
66118;SDS011;52912;48.564;9.302;2022-07-11T07:22:37;4.25;;;2.03;;
66118;SDS011;52912;48.564;9.302;2022-07-11T07:25:04;5.28;;;2.10;;
66118;SDS011;52912;48.564;9.302;2022-07-11T07:27:33;3.30;;;2.10;;
66118;SDS011;52912;48.564;9.302;2022-07-11T07:29:59;4.78;;;2.40;;
66118;SDS011;52912;48.564;9.302;2022-07-11T07:32:24;4.85;;;2.30;;
66118;SDS011;52912;48.564;9.302;2022-07-11T07:34:50;4.53;;;2.25;;
66118;SDS011;52912;48.564;9.302;2022-07-11T07:37:15;7.53;;;2.15;;
66118;SDS011;52912;48.564;9.302;2022-07-11T07:39:42;10.30;;;1.92;;
66118;SDS011;52912;48.564;9.302;2022-07-11T07:42:10;4.55;;;1.90;;
66118;SDS011;52912;48.564;9.302;2022-07-11T07:44:40;6.75;;;2.03;;
66118;SDS011;52912;48.564;9.302;2022-07-11T07:47:06;4.15;;;2.15;;
66118;SDS011;52912;48.564;9.302;2022-07-11T07:49:31;6.10;;;2.13;;
66118;SDS011;52912;48.564;9.302;2022-07-11T07:51:57;8.20;;;2.33;;
66118;SDS011;52912;48.564;9.302;2022-07-11T07:54:23;6.13;;;2.20;;
66118;SDS011;52912;48.564;9.302;2022-07-11T07:56:50;6.07;;;2.17;;
66118;SDS011;52912;48.564;9.302;2022-07-11T07:59:15;3.83;;;2.22;;
66118;SDS011;52912;48.564;9.302;2022-07-11T08:01:41;6.05;;;2.30;;
66118;SDS011;52912;48.564;9.302;2022-07-11T08:04:07;5.38;;;2.28;;
66118;SDS011;52912;48.564;9.302;2022-07-11T08:06:33;5.07;;;2.10;;
66118;SDS011;52912;48.564;9.302;2022-07-11T08:09:00;2.60;;;1.73;;
66118;SDS011;52912;48.564;9.302;2022-07-11T08:11:29;2.08;;;1.73;;
66118;SDS011;52912;48.564;9.302;2022-07-11T08:13:56;5.57;;;1.80;;
66118;SDS011;52912;48.564;9.302;2022-07-11T08:16:22;4.20;;;2.05;;
66118;SDS011;52912;48.564;9.302;2022-07-11T08:18:47;3.72;;;1.60;;
66118;SDS011;52912;48.564;9.302;2022-07-11T08:21:13;3.85;;;1.80;;
66118;SDS011;52912;48.564;9.302;2022-07-11T08:23:39;2.53;;;1.83;;
66118;SDS011;52912;48.564;9.302;2022-07-11T08:26:04;4.03;;;1.73;;
66118;SDS011;52912;48.564;9.302;2022-07-11T08:28:30;2.85;;;2.05;;
66118;SDS011;52912;48.564;9.302;2022-07-11T08:30:57;3.40;;;1.90;;
66118;SDS011;52912;48.564;9.302;2022-07-11T08:33:23;8.75;;;2.25;;
66118;SDS011;52912;48.564;9.302;2022-07-11T08:35:49;3.83;;;1.83;;
66118;SDS011;52912;48.564;9.302;2022-07-11T08:38:14;2.60;;;1.65;;
66118;SDS011;52912;48.564;9.302;2022-07-11T08:40:40;3.85;;;1.75;;
66118;SDS011;52912;48.564;9.302;2022-07-11T08:43:10;2.97;;;1.50;;
66118;SDS011;52912;48.564;9.302;2022-07-11T08:45:38;6.07;;;1.40;;
66118;SDS011;52912;48.564;9.302;2022-07-11T08:48:05;3.80;;;1.25;;
66118;SDS011;52912;48.564;9.302;2022-07-11T08:50:32;1.33;;;1.17;;
66118;SDS011;52912;48.564;9.302;2022-07-11T08:52:58;3.20;;;1.42;;
66118;SDS011;52912;48.564;9.302;2022-07-11T08:55:24;4.43;;;1.40;;
66118;SDS011;52912;48.564;9.302;2022-07-11T08:57:49;1.88;;;1.20;;
66118;SDS011;52912;48.564;9.302;2022-07-11T09:00:15;1.77;;;1.15;;
66118;SDS011;52912;48.564;9.302;2022-07-11T09:02:43;1.10;;;0.70;;
66118;SDS011;52912;48.564;9.302;2022-07-11T09:05:10;3.17;;;1.00;;
66118;SDS011;52912;48.564;9.302;2022-07-11T09:07:42;1.10;;;1.00;;
66118;SDS011;52912;48.564;9.302;2022-07-11T10:32:05;0.80;;;0.80;;
66118;SDS011;52912;48.564;9.302;2022-07-11T10:34:31;0.60;;;0.60;;
66118;SDS011;52912;48.564;9.302;2022-07-11T10:36:58;0.60;;;0.60;;
66118;SDS011;52912;48.564;9.302;2022-07-11T10:39:24;0.88;;;0.70;;
66118;SDS011;52912;48.564;9.302;2022-07-11T10:41:50;2.45;;;0.98;;
66118;SDS011;52912;48.564;9.302;2022-07-11T10:44:16;2.00;;;0.90;;
66118;SDS011;52912;48.564;9.302;2022-07-11T10:46:42;0.73;;;0.73;;
66118;SDS011;52912;48.564;9.302;2022-07-11T10:49:15;1.05;;;0.80;;
66118;SDS011;52912;48.564;9.302;2022-07-11T10:51:45;1.23;;;0.88;;
66118;SDS011;52912;48.564;9.302;2022-07-11T10:54:17;1.83;;;0.90;;
66118;SDS011;52912;48.564;9.302;2022-07-11T10:56:55;1.98;;;0.90;;
66118;SDS011;52912;48.564;9.302;2022-07-11T10:59:27;2.58;;;0.90;;
66118;SDS011;52912;48.564;9.302;2022-07-11T11:02:08;0.73;;;0.73;;
66118;SDS011;52912;48.564;9.302;2022-07-11T11:04:46;2.13;;;1.10;;
66118;SDS011;52912;48.564;9.302;2022-07-11T11:07:29;6.95;;;1.27;;
66118;SDS011;52912;48.564;9.302;2022-07-11T11:09:56;2.00;;;1.00;;
66118;SDS011;52912;48.564;9.302;2022-07-11T11:12:29;2.15;;;1.10;;
66118;SDS011;52912;48.564;9.302;2022-07-11T11:15:34;0.80;;;0.80;;
66118;SDS011;52912;48.564;9.302;2022-07-11T11:21:15;2.28;;;1.15;;
66118;SDS011;52912;48.564;9.302;2022-07-11T11:24:02;1.73;;;1.00;;
66118;SDS011;52912;48.564;9.302;2022-07-11T11:26:42;1.08;;;1.00;;
66118;SDS011;52912;48.564;9.302;2022-07-11T11:29:17;2.78;;;1.30;;
66118;SDS011;52912;48.564;9.302;2022-07-11T11:31:48;2.35;;;1.20;;
66118;SDS011;52912;48.564;9.302;2022-07-11T11:34:14;1.83;;;1.20;;
66118;SDS011;52912;48.564;9.302;2022-07-11T11:36:41;2.47;;;1.20;;
66118;SDS011;52912;48.564;9.302;2022-07-11T11:39:07;2.53;;;1.45;;
66118;SDS011;52912;48.564;9.302;2022-07-11T11:41:33;1.25;;;1.10;;
66118;SDS011;52912;48.564;9.302;2022-07-11T11:43:58;1.73;;;1.52;;
66118;SDS011;52912;48.564;9.302;2022-07-11T11:46:25;1.23;;;1.13;;
66118;SDS011;52912;48.564;9.302;2022-07-11T11:48:54;3.22;;;1.20;;
66118;SDS011;52912;48.564;9.302;2022-07-11T11:51:20;1.40;;;1.30;;
66118;SDS011;52912;48.564;9.302;2022-07-11T11:53:48;1.60;;;1.30;;
66118;SDS011;52912;48.564;9.302;2022-07-11T11:56:14;1.70;;;1.20;;
66118;SDS011;52912;48.564;9.302;2022-07-11T11:58:41;1.40;;;1.27;;
66118;SDS011;52912;48.564;9.302;2022-07-11T12:01:07;1.63;;;1.20;;
66118;SDS011;52912;48.564;9.302;2022-07-11T12:03:45;2.38;;;1.35;;
66118;SDS011;52912;48.564;9.302;2022-07-11T12:06:12;1.20;;;1.10;;
66118;SDS011;52912;48.564;9.302;2022-07-11T12:08:37;1.20;;;1.10;;
66118;SDS011;52912;48.564;9.302;2022-07-11T12:11:05;1.45;;;1.02;;
66118;SDS011;52912;48.564;9.302;2022-07-11T12:13:31;1.23;;;1.13;;
66118;SDS011;52912;48.564;9.302;2022-07-11T12:15:57;1.95;;;0.98;;
66118;SDS011;52912;48.564;9.302;2022-07-11T12:18:22;2.28;;;1.20;;
66118;SDS011;52912;48.564;9.302;2022-07-11T12:20:48;1.70;;;1.20;;
66118;SDS011;52912;48.564;9.302;2022-07-11T12:23:15;1.38;;;1.20;;
66118;SDS011;52912;48.564;9.302;2022-07-11T12:25:41;5.18;;;1.20;;
66118;SDS011;52912;48.564;9.302;2022-07-11T12:28:09;1.30;;;1.20;;
66118;SDS011;52912;48.564;9.302;2022-07-11T12:30:35;2.03;;;1.10;;
66118;SDS011;52912;48.564;9.302;2022-07-11T12:33:02;1.23;;;1.13;;
66118;SDS011;52912;48.564;9.302;2022-07-11T12:35:31;1.27;;;1.10;;
66118;SDS011;52912;48.564;9.302;2022-07-11T12:37:57;1.75;;;1.20;;
66118;SDS011;52912;48.564;9.302;2022-07-11T12:40:23;1.67;;;1.20;;
66118;SDS011;52912;48.564;9.302;2022-07-11T12:42:49;1.75;;;1.30;;
66118;SDS011;52912;48.564;9.302;2022-07-11T12:45:16;2.63;;;1.20;;
66118;SDS011;52912;48.564;9.302;2022-07-11T12:47:43;2.20;;;1.27;;
66118;SDS011;52912;48.564;9.302;2022-07-11T12:50:11;2.97;;;1.40;;
66118;SDS011;52912;48.564;9.302;2022-07-11T12:52:38;1.88;;;1.25;;
66118;SDS011;52912;48.564;9.302;2022-07-11T12:55:04;1.92;;;1.48;;
66118;SDS011;52912;48.564;9.302;2022-07-11T12:57:31;1.42;;;1.30;;
66118;SDS011;52912;48.564;9.302;2022-07-11T12:59:56;1.73;;;1.20;;
66118;SDS011;52912;48.564;9.302;2022-07-11T13:02:37;2.70;;;1.45;;
66118;SDS011;52912;48.564;9.302;2022-07-11T13:05:03;1.45;;;1.35;;
66118;SDS011;52912;48.564;9.302;2022-07-11T13:07:29;4.20;;;1.20;;
66118;SDS011;52912;48.564;9.302;2022-07-11T13:09:57;2.37;;;1.30;;
66118;SDS011;52912;48.564;9.302;2022-07-11T13:12:22;1.73;;;1.50;;
66118;SDS011;52912;48.564;9.302;2022-07-11T13:14:48;1.50;;;1.25;;
66118;SDS011;52912;48.564;9.302;2022-07-11T13:17:13;4.32;;;1.30;;
66118;SDS011;52912;48.564;9.302;2022-07-11T13:19:40;6.72;;;1.38;;
66118;SDS011;52912;48.564;9.302;2022-07-11T13:22:06;3.65;;;1.20;;
66118;SDS011;52912;48.564;9.302;2022-07-11T13:24:31;2.00;;;1.20;;
66118;SDS011;52912;48.564;9.302;2022-07-11T13:26:57;3.22;;;1.40;;
66118;SDS011;52912;48.564;9.302;2022-07-11T13:29:22;3.60;;;1.45;;
66118;SDS011;52912;48.564;9.302;2022-07-11T13:31:48;3.15;;;1.58;;
66118;SDS011;52912;48.564;9.302;2022-07-11T13:34:13;2.13;;;1.48;;
66118;SDS011;52912;48.564;9.302;2022-07-11T13:36:40;2.70;;;1.60;;
66118;SDS011;52912;48.564;9.302;2022-07-11T13:39:06;2.50;;;1.30;;
66118;SDS011;52912;48.564;9.302;2022-07-11T13:41:32;6.05;;;1.65;;
66118;SDS011;52912;48.564;9.302;2022-07-11T13:43:57;1.50;;;1.40;;
66118;SDS011;52912;48.564;9.302;2022-07-11T13:46:23;2.30;;;1.48;;
66118;SDS011;52912;48.564;9.302;2022-07-11T13:48:48;3.95;;;1.65;;
66118;SDS011;52912;48.564;9.302;2022-07-11T13:51:14;3.08;;;1.38;;
66118;SDS011;52912;48.564;9.302;2022-07-11T13:53:41;3.13;;;1.80;;
66118;SDS011;52912;48.564;9.302;2022-07-11T13:56:07;2.38;;;1.45;;
66118;SDS011;52912;48.564;9.302;2022-07-11T13:58:33;1.80;;;1.55;;
66118;SDS011;52912;48.564;9.302;2022-07-11T14:00:59;1.92;;;1.50;;
66118;SDS011;52912;48.564;9.302;2022-07-11T14:03:24;2.90;;;1.48;;
66118;SDS011;52912;48.564;9.302;2022-07-11T14:05:50;4.43;;;1.42;;
66118;SDS011;52912;48.564;9.302;2022-07-11T14:08:16;1.70;;;1.60;;
66118;SDS011;52912;48.564;9.302;2022-07-11T14:10:43;3.30;;;1.58;;
66118;SDS011;52912;48.564;9.302;2022-07-11T14:13:09;2.90;;;1.60;;
66118;SDS011;52912;48.564;9.302;2022-07-11T14:15:34;2.55;;;1.48;;
66118;SDS011;52912;48.564;9.302;2022-07-11T14:18:00;2.55;;;1.50;;
66118;SDS011;52912;48.564;9.302;2022-07-11T14:20:26;4.18;;;1.40;;
66118;SDS011;52912;48.564;9.302;2022-07-11T14:22:51;1.98;;;1.45;;
66118;SDS011;52912;48.564;9.302;2022-07-11T14:25:20;5.28;;;1.50;;
66118;SDS011;52912;48.564;9.302;2022-07-11T14:30:27;1.77;;;1.50;;
66118;SDS011;52912;48.564;9.302;2022-07-11T14:32:56;3.03;;;1.40;;
66118;SDS011;52912;48.564;9.302;2022-07-11T14:37:47;2.73;;;1.50;;
66118;SDS011;52912;48.564;9.302;2022-07-11T14:40:12;1.88;;;1.45;;
66118;SDS011;52912;48.564;9.302;2022-07-11T14:42:38;5.88;;;2.03;;
66118;SDS011;52912;48.564;9.302;2022-07-11T14:45:11;2.47;;;1.40;;
66118;SDS011;52912;48.564;9.302;2022-07-11T14:47:44;4.93;;;1.77;;
66118;SDS011;52912;48.564;9.302;2022-07-11T14:50:11;1.73;;;1.50;;
66118;SDS011;52912;48.564;9.302;2022-07-11T14:52:37;2.22;;;1.70;;
66118;SDS011;52912;48.564;9.302;2022-07-11T14:55:05;1.98;;;1.50;;
66118;SDS011;52912;48.564;9.302;2022-07-11T14:57:32;2.08;;;1.50;;
66118;SDS011;52912;48.564;9.302;2022-07-11T14:59:57;1.73;;;1.63;;
66118;SDS011;52912;48.564;9.302;2022-07-11T15:02:23;2.47;;;1.60;;
66118;SDS011;52912;48.564;9.302;2022-07-11T15:04:50;2.08;;;1.70;;
66118;SDS011;52912;48.564;9.302;2022-07-11T15:07:15;4.53;;;1.70;;
66118;SDS011;52912;48.564;9.302;2022-07-11T15:09:41;2.90;;;1.67;;
66118;SDS011;52912;48.564;9.302;2022-07-11T15:12:07;2.63;;;1.50;;
66118;SDS011;52912;48.564;9.302;2022-07-11T15:14:32;1.88;;;1.67;;
66118;SDS011;52912;48.564;9.302;2022-07-11T15:16:58;5.50;;;1.90;;
66118;SDS011;52912;48.564;9.302;2022-07-11T15:19:23;4.50;;;1.73;;
66118;SDS011;52912;48.564;9.302;2022-07-11T15:21:50;4.95;;;1.83;;
66118;SDS011;52912;48.564;9.302;2022-07-11T15:24:16;4.30;;;1.77;;
66118;SDS011;52912;48.564;9.302;2022-07-11T15:26:41;3.00;;;1.80;;
66118;SDS011;52912;48.564;9.302;2022-07-11T15:29:07;3.28;;;1.80;;
66118;SDS011;52912;48.564;9.302;2022-07-11T15:31:32;3.63;;;1.63;;
66118;SDS011;52912;48.564;9.302;2022-07-11T15:33:58;1.88;;;1.55;;
66118;SDS011;52912;48.564;9.302;2022-07-11T15:36:23;2.78;;;1.75;;
66118;SDS011;52912;48.564;9.302;2022-07-11T16:14:57;4.03;;;1.70;;
66118;SDS011;52912;48.564;9.302;2022-07-11T16:17:22;5.93;;;2.03;;
66118;SDS011;52912;48.564;9.302;2022-07-11T16:19:53;2.35;;;1.90;;
66118;SDS011;52912;48.564;9.302;2022-07-11T16:22:19;3.40;;;1.63;;
66118;SDS011;52912;48.564;9.302;2022-07-11T16:24:45;3.28;;;2.05;;
66118;SDS011;52912;48.564;9.302;2022-07-11T16:27:10;2.08;;;1.80;;
66118;SDS011;52912;48.564;9.302;2022-07-11T16:29:37;2.60;;;1.88;;
66118;SDS011;52912;48.564;9.302;2022-07-11T16:32:04;5.38;;;2.00;;
66118;SDS011;52912;48.564;9.302;2022-07-11T16:34:31;3.72;;;2.03;;
66118;SDS011;52912;48.564;9.302;2022-07-11T16:36:56;3.60;;;2.03;;
66118;SDS011;52912;48.564;9.302;2022-07-11T16:39:22;2.55;;;1.88;;
66118;SDS011;52912;48.564;9.302;2022-07-11T16:41:48;2.22;;;1.80;;
66118;SDS011;52912;48.564;9.302;2022-07-11T16:44:13;4.75;;;2.17;;
66118;SDS011;52912;48.564;9.302;2022-07-11T16:46:39;7.47;;;2.10;;
66118;SDS011;52912;48.564;9.302;2022-07-11T16:49:06;3.78;;;1.90;;
66118;SDS011;52912;48.564;9.302;2022-07-11T16:51:32;3.35;;;1.60;;
66118;SDS011;52912;48.564;9.302;2022-07-11T16:53:57;2.45;;;1.70;;